createdAt,value
2022-09-18T00:01:43.443Z,14.48
2022-09-18T00:04:15.311Z,13.23
2022-09-18T00:06:48.521Z,8.50
2022-09-18T00:09:16.910Z,9.45
2022-09-18T00:11:48.383Z,13.45
2022-09-18T00:14:20.450Z,13.70
2022-09-18T00:16:51.167Z,13.50
2022-09-18T00:19:20.419Z,7.63
2022-09-18T00:21:51.397Z,8.90
2022-09-18T00:24:22.261Z,17.05
2022-09-18T00:26:51.159Z,16.87
2022-09-18T00:29:19.626Z,13.38
2022-09-18T00:31:52.816Z,14.70
2022-09-18T00:34:21.097Z,10.82
2022-09-18T00:36:50.403Z,9.02
2022-09-18T00:39:18.494Z,9.13
2022-09-18T00:41:46.602Z,14.52
2022-09-18T00:44:48.820Z,9.20
2022-09-18T00:47:30.127Z,12.05
2022-09-18T00:50:06.853Z,11.35
2022-09-18T00:52:48.245Z,10.27
2022-09-18T00:55:19.613Z,9.57
2022-09-18T00:57:54.512Z,11.63
2022-09-18T01:00:24.275Z,16.57
2022-09-18T01:02:54.809Z,14.02
2022-09-18T01:05:40.761Z,10.07
2022-09-18T01:08:27.737Z,16.00
2022-09-18T01:11:14.648Z,11.60
2022-09-18T01:13:55.380Z,11.50
2022-09-18T01:16:33.299Z,12.95
2022-09-18T01:19:21.063Z,10.45
2022-09-18T01:22:01.831Z,13.20
2022-09-18T01:24:46.588Z,12.10
2022-09-18T01:27:27.816Z,11.63
2022-09-18T01:30:05.760Z,19.37
2022-09-18T01:32:44.271Z,9.68
2022-09-18T01:35:40.418Z,13.23
2022-09-18T01:38:20.086Z,15.23
2022-09-18T01:40:54.249Z,11.05
2022-09-18T01:43:26.176Z,8.65
2022-09-18T01:46:00.868Z,10.35
2022-09-18T01:48:39.847Z,16.52
2022-09-18T01:51:15.052Z,11.82
2022-09-18T01:53:49.625Z,15.25
2022-09-18T01:56:24.357Z,14.55
2022-09-18T01:58:58.486Z,12.70
2022-09-18T02:01:39.569Z,13.68
2022-09-18T02:04:15.917Z,14.00
2022-09-18T02:06:54.379Z,14.52
2022-09-18T02:09:22.569Z,13.63
2022-09-18T02:11:56.422Z,10.23
2022-09-18T02:14:30.147Z,15.57
2022-09-18T02:17:13.565Z,12.48
2022-09-18T02:19:50.883Z,15.02
2022-09-18T02:22:24.466Z,15.43
2022-09-18T02:24:59.411Z,11.80
2022-09-18T02:27:29.375Z,12.88
2022-09-18T02:29:59.855Z,8.35
2022-09-18T02:32:29.843Z,15.02
2022-09-18T02:34:58.346Z,11.18
2022-09-18T02:37:41.621Z,14.25
2022-09-18T02:40:30.032Z,18.90
2022-09-18T02:43:17.780Z,13.70
2022-09-18T02:45:59.680Z,14.93
2022-09-18T02:48:49.781Z,13.70
2022-09-18T02:51:29.527Z,17.30
2022-09-18T02:54:06.140Z,13.03
2022-09-18T02:56:41.494Z,11.53
2022-09-18T02:59:16.276Z,14.83
2022-09-18T03:01:50.009Z,9.77
2022-09-18T03:04:26.036Z,17.02
2022-09-18T03:07:05.658Z,11.70
2022-09-18T03:09:39.937Z,15.60
2022-09-18T03:12:08.751Z,8.05
2022-09-18T03:14:40.761Z,13.15
2022-09-18T03:17:10.296Z,15.25
2022-09-18T03:19:39.825Z,8.67
2022-09-18T03:22:09.434Z,13.47
2022-09-18T03:24:38.716Z,5.60
2022-09-18T03:27:08.232Z,9.33
2022-09-18T03:29:37.816Z,8.93
2022-09-18T03:32:06.430Z,9.67
2022-09-18T03:34:45.526Z,12.33
2022-09-18T03:37:13.789Z,11.10
2022-09-18T03:39:41.996Z,9.25
2022-09-18T03:42:14.868Z,7.73
2022-09-18T03:44:42.945Z,11.90
2022-09-18T03:47:19.992Z,8.87
2022-09-18T03:49:50.426Z,10.33
2022-09-18T03:52:19.147Z,9.03
2022-09-18T03:54:58.065Z,7.80
2022-09-18T03:57:46.486Z,8.53
2022-09-18T04:00:47.056Z,10.93
2022-09-18T04:03:24.418Z,12.20
2022-09-18T04:06:17.093Z,11.13
2022-09-18T04:09:13.053Z,10.83
2022-09-18T04:11:48.411Z,9.73
2022-09-18T04:14:16.830Z,9.77
2022-09-18T04:16:46.406Z,8.60
2022-09-18T04:19:14.516Z,6.20
2022-09-18T04:21:44.532Z,9.37
2022-09-18T04:24:12.666Z,8.03
2022-09-18T04:26:40.906Z,6.10
2022-09-18T04:29:09.032Z,5.97
2022-09-18T04:31:38.009Z,11.20
2022-09-18T04:34:10.681Z,9.30
2022-09-18T04:36:38.937Z,5.23
2022-09-18T04:39:09.778Z,9.63
2022-09-18T04:41:37.975Z,12.00
2022-09-18T04:44:07.157Z,12.63
2022-09-18T04:46:36.015Z,9.03
2022-09-18T04:49:04.547Z,11.10
2022-09-18T04:51:33.097Z,9.03
2022-09-18T04:54:01.637Z,9.50
2022-09-18T04:56:31.269Z,5.80
2022-09-18T04:58:59.980Z,6.43
2022-09-18T05:01:28.398Z,7.73
2022-09-18T05:03:56.493Z,4.47
2022-09-18T05:06:32.308Z,10.43
2022-09-18T05:09:02.099Z,5.80
2022-09-18T05:11:31.823Z,7.57
2022-09-18T05:14:00.295Z,6.43
2022-09-18T05:16:31.678Z,10.40
2022-09-18T05:19:20.119Z,7.50
2022-09-18T05:21:51.232Z,13.47
2022-09-18T05:24:20.502Z,10.37
2022-09-18T05:26:51.291Z,11.60
2022-09-18T05:29:21.978Z,12.43
2022-09-18T05:31:51.896Z,12.37
2022-09-18T05:34:20.225Z,16.93
2022-09-18T05:36:48.307Z,14.20
2022-09-18T05:39:17.795Z,14.83
2022-09-18T05:41:51.631Z,10.43
2022-09-18T05:44:21.140Z,18.53
2022-09-18T05:46:50.159Z,10.83
2022-09-18T05:49:18.815Z,16.33
2022-09-18T05:51:46.957Z,11.83
2022-09-18T05:54:16.873Z,11.83
2022-09-18T05:56:49.210Z,8.13
2022-09-18T05:59:19.011Z,10.30
2022-09-18T06:01:49.696Z,12.37
2022-09-18T06:04:24.334Z,7.87
2022-09-18T06:07:01.729Z,14.90
2022-09-18T06:09:30.501Z,13.57
2022-09-18T06:11:58.977Z,7.43
2022-09-18T06:14:28.552Z,15.17
2022-09-18T06:16:58.486Z,8.07
2022-09-18T06:19:26.585Z,13.77
2022-09-18T06:21:54.693Z,9.13
2022-09-18T06:24:23.489Z,11.20
2022-09-18T06:27:07.500Z,8.53
2022-09-18T06:29:37.081Z,10.47
2022-09-18T06:32:14.358Z,7.63
2022-09-18T06:34:44.000Z,12.13
2022-09-18T06:37:16.265Z,9.77
2022-09-18T06:39:44.722Z,7.63
2022-09-18T06:42:35.798Z,12.20
2022-09-18T06:45:14.841Z,8.70
2022-09-18T06:47:43.291Z,11.47
2022-09-18T06:50:12.602Z,9.20
2022-09-18T06:52:40.718Z,12.90
2022-09-18T06:55:09.668Z,14.03
2022-09-18T06:57:37.874Z,10.90
2022-09-18T07:00:08.892Z,8.47
2022-09-18T07:02:41.404Z,8.18
2022-09-18T07:05:31.308Z,7.13
2022-09-18T07:08:00.496Z,10.90
2022-09-18T07:10:31.545Z,12.10
2022-09-18T07:13:02.304Z,10.48
2022-09-18T07:15:32.864Z,9.37
2022-09-18T07:18:05.949Z,6.97
2022-09-18T07:20:34.155Z,12.53
2022-09-18T07:23:04.225Z,11.93
2022-09-18T07:25:42.886Z,8.57
2022-09-18T07:28:12.791Z,11.73
2022-09-18T07:30:47.644Z,7.47
2022-09-18T07:33:18.033Z,13.83
2022-09-18T07:35:49.226Z,15.15
2022-09-18T07:38:18.880Z,9.65
2022-09-18T07:40:53.954Z,10.55
2022-09-18T07:43:33.369Z,10.30
2022-09-18T07:46:03.425Z,8.55
2022-09-18T07:48:36.803Z,14.25
2022-09-18T07:51:11.585Z,9.13
2022-09-18T07:53:41.179Z,9.93
2022-09-18T07:56:11.142Z,9.80
2022-09-18T07:58:40.655Z,8.55
2022-09-18T08:01:16.222Z,13.77
2022-09-18T08:03:50.141Z,8.35
2022-09-18T08:06:18.317Z,8.17
2022-09-18T08:08:55.568Z,8.57
2022-09-18T08:11:30.923Z,7.70
2022-09-18T08:14:28.718Z,10.52
2022-09-18T08:17:14.913Z,9.15
2022-09-18T08:20:04.257Z,11.68
2022-09-18T08:22:44.605Z,7.28
2022-09-18T08:25:14.128Z,7.47
2022-09-18T08:27:45.721Z,8.70
2022-09-18T08:30:17.350Z,6.10
2022-09-18T08:32:53.729Z,10.02
2022-09-18T08:35:23.228Z,11.60
2022-09-18T08:37:51.739Z,12.30
2022-09-18T08:40:57.150Z,11.45
2022-09-18T08:43:52.241Z,7.85
2022-09-18T08:46:27.280Z,10.45
2022-09-18T08:49:10.149Z,13.98
2022-09-18T08:51:50.074Z,9.88
2022-09-18T08:54:28.510Z,11.20
2022-09-18T08:57:22.522Z,8.30
2022-09-18T09:00:16.652Z,9.52
2022-09-18T09:02:53.024Z,11.68
2022-09-18T09:05:27.462Z,6.80
2022-09-18T09:08:53.574Z,6.22
2022-09-18T09:11:40.002Z,5.45
2022-09-18T09:14:55.504Z,8.32
2022-09-18T09:17:40.044Z,5.90
2022-09-18T09:20:25.413Z,7.60
2022-09-18T09:23:05.402Z,4.13
2022-09-18T09:25:48.495Z,6.63
2022-09-18T09:28:59.125Z,6.73
2022-09-18T09:31:44.909Z,7.53
2022-09-18T09:34:47.834Z,7.15
2022-09-18T09:37:43.408Z,9.23
2022-09-18T09:40:21.947Z,9.80
2022-09-18T09:43:02.447Z,5.03
2022-09-18T09:45:39.156Z,10.05
2022-09-18T09:48:16.815Z,7.13
2022-09-18T09:50:57.926Z,8.60
2022-09-18T09:53:28.507Z,6.10
2022-09-18T09:56:13.008Z,6.03
2022-09-18T09:58:56.764Z,7.22
2022-09-18T10:01:30.878Z,10.45
2022-09-18T10:04:16.468Z,7.88
2022-09-18T10:06:57.773Z,7.13
2022-09-18T10:09:41.481Z,5.57
2022-09-18T10:12:25.887Z,7.07
2022-09-18T10:15:14.795Z,7.18
2022-09-18T10:17:44.742Z,6.22
2022-09-18T10:20:18.297Z,7.60
2022-09-18T10:22:48.803Z,6.45
2022-09-18T10:25:29.536Z,4.70
2022-09-18T10:27:57.656Z,6.88
2022-09-18T10:30:27.205Z,7.78
2022-09-18T10:32:55.726Z,5.38
2022-09-18T10:35:44.983Z,8.25
2022-09-18T10:38:34.910Z,5.05
2022-09-18T10:41:34.143Z,6.13
2022-09-18T10:44:25.597Z,9.48
2022-09-18T10:47:07.558Z,9.68
2022-09-18T10:49:41.666Z,6.32
2022-09-18T10:52:38.775Z,7.55
2022-09-18T10:55:20.740Z,10.32
2022-09-18T10:58:13.701Z,6.72
2022-09-18T11:00:49.976Z,6.50
2022-09-18T11:03:36.934Z,10.90
2022-09-18T11:06:10.141Z,4.85
2022-09-18T11:08:45.064Z,9.48
2022-09-18T11:11:27.444Z,13.60
2022-09-18T11:14:02.142Z,7.03
2022-09-18T11:16:44.290Z,6.53
2022-09-18T11:19:26.496Z,5.15
2022-09-18T11:21:59.363Z,4.07
2022-09-18T11:24:31.175Z,5.97
2022-09-18T11:27:21.518Z,4.18
2022-09-18T11:29:51.226Z,6.40
2022-09-18T11:32:25.161Z,2.63
2022-09-18T11:35:00.659Z,5.15
2022-09-18T11:37:38.769Z,2.90
2022-09-18T11:40:18.399Z,3.58
2022-09-18T11:42:50.852Z,4.25
2022-09-18T11:45:41.326Z,5.45
2022-09-18T11:48:26.042Z,5.20
2022-09-18T11:51:01.499Z,6.22
2022-09-18T11:53:36.937Z,9.57
2022-09-18T11:56:12.417Z,9.80
2022-09-18T11:58:48.872Z,8.13
2022-09-18T12:01:28.969Z,7.70
2022-09-18T12:04:08.661Z,8.82
2022-09-18T12:06:49.075Z,8.60
2022-09-18T12:09:28.512Z,11.30
2022-09-18T12:12:07.019Z,7.90
2022-09-18T12:14:45.707Z,7.72
2022-09-18T12:17:28.733Z,9.60
2022-09-18T12:20:05.914Z,7.82
2022-09-18T12:22:45.297Z,4.45
2022-09-18T12:25:17.875Z,7.95
2022-09-18T12:28:22.462Z,7.25
2022-09-18T12:31:06.168Z,9.15
2022-09-18T12:33:46.240Z,9.35
2022-09-18T12:36:46.119Z,6.78
2022-09-18T12:39:38.937Z,7.82
2022-09-18T12:42:22.802Z,9.20
2022-09-18T12:45:29.244Z,7.78
2022-09-18T12:48:26.889Z,4.82
2022-09-18T12:51:16.492Z,8.38
2022-09-18T12:54:13.418Z,5.65
2022-09-18T12:57:08.144Z,11.00
2022-09-18T12:59:52.389Z,9.27
2022-09-18T13:02:38.966Z,4.18
2022-09-18T13:05:17.191Z,4.93
2022-09-18T13:07:52.918Z,4.82
2022-09-18T13:10:25.502Z,4.78
2022-09-18T13:13:03.552Z,6.00
2022-09-18T13:15:40.010Z,4.23
2022-09-18T13:18:26.315Z,5.38
2022-09-18T13:20:58.416Z,5.28
2022-09-18T13:23:32.372Z,7.10
2022-09-18T13:26:02.602Z,4.95
2022-09-18T13:28:33.292Z,4.28
2022-09-18T13:31:28.712Z,4.25
2022-09-18T13:34:00.691Z,7.80
2022-09-18T13:36:33.773Z,5.22
2022-09-18T13:39:06.338Z,5.47
2022-09-18T13:41:45.289Z,6.72
2022-09-18T13:44:21.412Z,3.90
2022-09-18T13:46:51.895Z,7.13
2022-09-18T13:49:29.304Z,4.47
2022-09-18T13:52:17.949Z,4.88
2022-09-18T13:55:01.904Z,8.05
2022-09-18T13:57:31.651Z,5.50
2022-09-18T14:00:02.292Z,4.85
2022-09-18T14:02:41.544Z,5.55
2022-09-18T14:05:33.830Z,8.13
2022-09-18T14:08:37.537Z,6.18
2022-09-18T14:11:17.574Z,4.20
2022-09-18T14:13:54.049Z,3.20
2022-09-18T14:16:40.842Z,3.77
2022-09-18T14:19:30.890Z,2.87
2022-09-18T14:22:00.965Z,2.93
2022-09-18T14:24:59.989Z,3.67
2022-09-18T14:27:53.439Z,3.37
2022-09-18T14:30:26.263Z,3.30
2022-09-18T14:33:07.217Z,2.85
2022-09-18T14:35:48.345Z,2.47
2022-09-18T14:38:23.750Z,2.83
2022-09-18T14:41:00.406Z,3.65
2022-09-18T14:43:29.895Z,4.40
2022-09-18T14:45:58.291Z,2.80
2022-09-18T14:48:36.006Z,7.40
2022-09-18T14:51:07.832Z,5.03
2022-09-18T14:53:44.949Z,5.90
2022-09-18T14:56:18.511Z,5.50
2022-09-18T14:58:50.417Z,3.83
2022-09-18T15:01:24.137Z,5.95
2022-09-18T15:03:55.737Z,4.35
2022-09-18T15:06:29.546Z,4.28
2022-09-18T15:08:58.935Z,3.70
2022-09-18T15:11:41.872Z,4.35
2022-09-18T15:14:29.037Z,6.45
2022-09-18T15:16:58.861Z,5.07
2022-09-18T15:19:28.637Z,4.50
2022-09-18T15:21:59.987Z,5.82
2022-09-18T15:24:30.632Z,5.93
2022-09-18T15:27:03.556Z,7.95
2022-09-18T15:29:43.581Z,8.57
2022-09-18T15:32:21.794Z,6.50
2022-09-18T15:34:53.007Z,13.02
2022-09-18T15:37:25.035Z,7.90
2022-09-18T15:40:05.167Z,12.15
2022-09-18T15:42:37.214Z,9.38
2022-09-18T15:45:23.009Z,5.82
2022-09-18T15:47:51.646Z,5.63
2022-09-18T15:50:36.660Z,7.72
2022-09-18T15:53:27.808Z,9.77
2022-09-18T15:56:03.872Z,11.65
2022-09-18T15:58:56.016Z,7.78
2022-09-18T16:01:35.059Z,4.43
2022-09-18T16:04:17.947Z,8.75
2022-09-18T16:06:55.816Z,7.53
2022-09-18T16:09:37.554Z,13.77
2022-09-18T16:12:36.994Z,11.55
2022-09-18T16:15:23.152Z,10.40
2022-09-18T16:18:24.787Z,8.32
2022-09-18T16:21:05.559Z,5.90
2022-09-18T16:23:37.036Z,10.20
2022-09-18T16:26:10.687Z,5.55
2022-09-18T16:28:44.053Z,10.13
2022-09-18T16:31:14.230Z,5.13
2022-09-18T16:33:57.120Z,9.05
2022-09-18T16:36:30.333Z,1.88
2022-09-18T16:39:01.645Z,4.45
2022-09-18T16:41:31.122Z,2.88
2022-09-18T16:44:00.013Z,4.57
2022-09-18T16:46:35.018Z,4.97
2022-09-18T16:49:05.162Z,9.70
2022-09-18T16:51:33.778Z,3.95
2022-09-18T16:54:02.226Z,5.30
2022-09-18T16:56:35.733Z,6.55
2022-09-18T16:59:07.256Z,5.32
2022-09-18T17:02:00.534Z,6.75
2022-09-18T17:04:29.647Z,9.60
2022-09-18T17:06:57.916Z,8.93
2022-09-18T17:09:26.509Z,10.13
2022-09-18T17:11:56.089Z,8.85
2022-09-18T17:14:24.599Z,5.07
2022-09-18T17:16:53.678Z,7.72
2022-09-18T17:19:22.694Z,4.30
2022-09-18T17:21:52.326Z,7.75
2022-09-18T17:24:23.984Z,4.95
2022-09-18T17:26:52.826Z,7.40
2022-09-18T17:29:22.374Z,9.50
2022-09-18T17:31:50.686Z,8.30
2022-09-18T17:34:19.029Z,10.60
2022-09-18T17:36:47.191Z,7.10
2022-09-18T17:39:17.052Z,8.93
2022-09-18T17:41:45.690Z,9.40
2022-09-18T17:44:13.980Z,6.95
2022-09-18T17:46:42.481Z,4.43
2022-09-18T17:49:10.552Z,9.83
2022-09-18T17:51:38.665Z,5.50
2022-09-18T17:54:08.126Z,8.10
2022-09-18T17:56:37.997Z,6.87
2022-09-18T17:59:08.764Z,10.87
2022-09-18T18:01:39.919Z,10.75
2022-09-18T18:04:08.640Z,10.10
2022-09-18T18:06:37.972Z,8.35
2022-09-18T18:09:09.819Z,7.93
2022-09-18T18:11:39.457Z,9.97
2022-09-18T18:14:07.751Z,8.10
2022-09-18T18:16:38.279Z,6.93
2022-09-18T18:19:11.865Z,8.80
2022-09-18T18:21:42.169Z,12.18
2022-09-18T18:24:16.287Z,9.63
2022-09-18T18:26:48.034Z,6.88
2022-09-18T18:29:19.294Z,14.93
2022-09-18T18:31:49.240Z,7.67
2022-09-18T18:34:22.191Z,8.57
2022-09-18T18:36:52.507Z,11.55
2022-09-18T18:39:20.842Z,7.25
2022-09-18T18:41:50.536Z,9.47
2022-09-18T18:44:18.707Z,14.60
2022-09-18T18:46:46.773Z,10.70
2022-09-18T18:49:16.146Z,6.37
2022-09-18T18:51:47.868Z,11.43
2022-09-18T18:54:17.749Z,8.70
2022-09-18T18:56:47.145Z,8.80
2022-09-18T18:59:19.258Z,12.23
2022-09-18T19:01:48.158Z,15.73
2022-09-18T19:04:19.172Z,9.98
2022-09-18T19:06:48.624Z,10.57
2022-09-18T19:09:20.804Z,13.15
2022-09-18T19:11:50.869Z,12.88
2022-09-18T19:14:23.447Z,9.82
2022-09-18T19:16:52.773Z,9.80
2022-09-18T19:19:24.463Z,10.27
2022-09-18T19:21:53.836Z,11.03
2022-09-18T19:24:22.940Z,10.23
2022-09-18T19:26:51.052Z,9.03
2022-09-18T19:29:22.395Z,9.53
2022-09-18T19:31:51.738Z,17.80
2022-09-18T19:34:22.343Z,5.90
2022-09-18T19:36:51.955Z,11.97
2022-09-18T19:39:24.444Z,12.87
2022-09-18T19:41:59.133Z,13.60
2022-09-18T19:44:34.535Z,12.00
2022-09-18T19:47:07.290Z,11.10
2022-09-18T19:49:39.494Z,11.70
2022-09-18T19:52:19.534Z,15.30
2022-09-18T19:54:49.665Z,13.73
2022-09-18T19:57:18.974Z,13.17
2022-09-18T19:59:52.510Z,9.93
2022-09-18T20:02:24.106Z,15.60
2022-09-18T20:04:52.775Z,12.03
2022-09-18T20:07:21.398Z,13.07
2022-09-18T20:09:49.500Z,9.00
2022-09-18T20:12:17.800Z,15.30
2022-09-18T20:14:46.128Z,11.10
2022-09-18T20:17:15.821Z,8.80
2022-09-18T20:19:46.733Z,12.10
2022-09-18T20:22:15.264Z,8.93
2022-09-18T20:24:43.755Z,9.13
2022-09-18T20:27:12.645Z,9.60
2022-09-18T20:29:41.402Z,8.67
2022-09-18T20:32:09.490Z,11.83
2022-09-18T20:34:39.105Z,11.00
2022-09-18T20:37:10.218Z,11.23
2022-09-18T20:39:38.750Z,10.43
2022-09-18T20:42:07.463Z,12.85
2022-09-18T20:44:36.532Z,11.17
2022-09-18T20:47:06.981Z,6.93
2022-09-18T20:49:36.698Z,10.37
2022-09-18T20:52:10.282Z,7.65
2022-09-18T20:54:41.529Z,12.27
2022-09-18T20:57:13.468Z,11.77
2022-09-18T20:59:41.569Z,6.27
2022-09-18T21:02:09.852Z,10.00
2022-09-18T21:04:38.519Z,8.97
2022-09-18T21:07:08.379Z,6.72
2022-09-18T21:09:36.697Z,4.83
2022-09-18T21:12:06.767Z,6.37
2022-09-18T21:14:36.846Z,3.07
2022-09-18T21:17:10.632Z,3.47
2022-09-18T21:19:39.835Z,2.13
2022-09-18T21:22:09.407Z,3.07
2022-09-18T21:24:37.793Z,1.90
2022-09-18T21:27:06.832Z,4.40
2022-09-18T21:29:35.050Z,1.73
2022-09-18T21:32:03.445Z,2.37
2022-09-18T21:34:34.145Z,3.73
2022-09-18T21:37:07.198Z,2.90
2022-09-18T21:39:37.067Z,2.25
2022-09-18T21:42:08.345Z,2.80
2022-09-18T21:44:37.650Z,3.57
2022-09-18T21:47:10.755Z,2.65
2022-09-18T21:49:38.934Z,1.93
2022-09-18T21:52:09.092Z,2.67
2022-09-18T21:54:38.570Z,3.50
2022-09-18T21:57:07.222Z,2.80
2022-09-18T21:59:35.923Z,3.30
2022-09-18T22:02:04.678Z,2.80
2022-09-18T22:04:33.942Z,2.37
2022-09-18T22:07:03.562Z,2.65
2022-09-18T22:09:36.574Z,2.40
2022-09-18T22:12:07.717Z,3.83
2022-09-18T22:14:38.134Z,1.70
2022-09-18T22:17:08.540Z,2.67
2022-09-18T22:19:41.168Z,1.93
2022-09-18T22:22:11.520Z,1.70
2022-09-18T22:24:40.158Z,2.97
2022-09-18T22:27:13.905Z,2.33
2022-09-18T22:29:43.346Z,2.37
2022-09-18T22:32:11.849Z,1.73
2022-09-18T22:34:41.503Z,1.60
2022-09-18T22:37:11.992Z,2.47
2022-09-18T22:39:40.081Z,2.90
2022-09-18T22:42:09.561Z,2.23
2022-09-18T22:44:37.869Z,2.33
2022-09-18T22:47:06.296Z,3.57
2022-09-18T22:49:34.769Z,2.60
2022-09-18T22:52:03.337Z,1.60
2022-09-18T22:54:31.895Z,1.67
2022-09-18T22:57:00.208Z,2.03
2022-09-18T22:59:29.908Z,7.13
2022-09-18T23:02:01.246Z,3.83
2022-09-18T23:04:32.761Z,2.47
2022-09-18T23:07:01.781Z,2.03
2022-09-18T23:09:30.436Z,2.80
2022-09-18T23:12:00.019Z,3.80
2022-09-18T23:14:31.460Z,1.87
2022-09-18T23:17:01.495Z,1.40
2022-09-18T23:19:44.059Z,2.33
2022-09-18T23:22:12.557Z,1.40
2022-09-18T23:24:42.691Z,1.50
2022-09-18T23:27:11.856Z,3.40
2022-09-18T23:29:41.332Z,2.60
2022-09-18T23:32:10.759Z,1.70
2022-09-18T23:34:39.038Z,1.97
2022-09-18T23:37:07.207Z,3.07
2022-09-18T23:39:36.017Z,2.50
2022-09-18T23:42:05.704Z,1.10
2022-09-18T23:44:34.376Z,1.10
2022-09-18T23:47:04.442Z,1.40
2022-09-18T23:49:33.406Z,1.73
2022-09-18T23:52:03.541Z,1.23
2022-09-18T23:54:33.908Z,1.40
2022-09-18T23:57:02.140Z,2.30
2022-09-18T23:59:30.371Z,3.73
